sensor_id;sensor_type;location;lat;lon;timestamp;temperature;humidity
22071;DHT22;11200;51.488;6.668;2023-05-07T00:02:21;15.80;99.90
22071;DHT22;11200;51.488;6.668;2023-05-07T00:04:48;15.80;99.90
22071;DHT22;11200;51.488;6.668;2023-05-07T00:07:14;15.80;99.90
22071;DHT22;11200;51.488;6.668;2023-05-07T00:09:40;15.80;99.90
22071;DHT22;11200;51.488;6.668;2023-05-07T00:12:06;15.90;99.90
22071;DHT22;11200;51.488;6.668;2023-05-07T00:14:31;15.80;99.90
22071;DHT22;11200;51.488;6.668;2023-05-07T00:16:57;15.80;99.90
22071;DHT22;11200;51.488;6.668;2023-05-07T00:19:23;15.80;99.90
22071;DHT22;11200;51.488;6.668;2023-05-07T00:21:48;15.80;99.90
22071;DHT22;11200;51.488;6.668;2023-05-07T00:24:14;15.80;99.90
22071;DHT22;11200;51.488;6.668;2023-05-07T00:26:39;15.80;99.90
22071;DHT22;11200;51.488;6.668;2023-05-07T00:29:05;15.70;99.90
22071;DHT22;11200;51.488;6.668;2023-05-07T00:31:31;15.70;99.90
22071;DHT22;11200;51.488;6.668;2023-05-07T00:33:56;15.70;99.90
22071;DHT22;11200;51.488;6.668;2023-05-07T00:36:22;15.70;99.90
22071;DHT22;11200;51.488;6.668;2023-05-07T00:38:47;15.70;99.90
22071;DHT22;11200;51.488;6.668;2023-05-07T00:41:13;15.70;99.90
22071;DHT22;11200;51.488;6.668;2023-05-07T00:43:38;15.70;99.90
22071;DHT22;11200;51.488;6.668;2023-05-07T00:46:04;15.70;99.90
22071;DHT22;11200;51.488;6.668;2023-05-07T00:48:30;15.70;99.90
22071;DHT22;11200;51.488;6.668;2023-05-07T00:50:57;15.70;99.90
22071;DHT22;11200;51.488;6.668;2023-05-07T00:53:22;15.90;99.90
22071;DHT22;11200;51.488;6.668;2023-05-07T00:55:48;15.60;99.90
22071;DHT22;11200;51.488;6.668;2023-05-07T00:58:14;15.60;99.90
22071;DHT22;11200;51.488;6.668;2023-05-07T01:00:40;15.60;99.90
22071;DHT22;11200;51.488;6.668;2023-05-07T01:03:06;15.60;99.90
22071;DHT22;11200;51.488;6.668;2023-05-07T01:05:31;15.60;99.90
22071;DHT22;11200;51.488;6.668;2023-05-07T01:07:58;15.60;99.90
22071;DHT22;11200;51.488;6.668;2023-05-07T01:10:24;15.50;99.90
22071;DHT22;11200;51.488;6.668;2023-05-07T01:12:50;15.50;99.90
22071;DHT22;11200;51.488;6.668;2023-05-07T01:15:16;15.80;99.90
22071;DHT22;11200;51.488;6.668;2023-05-07T01:17:43;15.50;99.90
22071;DHT22;11200;51.488;6.668;2023-05-07T01:20:09;15.50;99.90
22071;DHT22;11200;51.488;6.668;2023-05-07T01:22:37;15.50;99.90
22071;DHT22;11200;51.488;6.668;2023-05-07T01:25:04;15.50;99.90
22071;DHT22;11200;51.488;6.668;2023-05-07T01:27:30;15.50;99.90
22071;DHT22;11200;51.488;6.668;2023-05-07T01:29:56;15.40;99.90
22071;DHT22;11200;51.488;6.668;2023-05-07T01:35:15;15.40;99.90
22071;DHT22;11200;51.488;6.668;2023-05-07T01:37:43;15.40;99.90
22071;DHT22;11200;51.488;6.668;2023-05-07T01:40:10;15.40;99.90
22071;DHT22;11200;51.488;6.668;2023-05-07T01:42:36;15.40;99.90
22071;DHT22;11200;51.488;6.668;2023-05-07T01:45:02;15.40;99.90
22071;DHT22;11200;51.488;6.668;2023-05-07T01:47:29;15.30;99.90
22071;DHT22;11200;51.488;6.668;2023-05-07T01:49:55;15.30;99.90
22071;DHT22;11200;51.488;6.668;2023-05-07T01:52:21;15.30;99.90
22071;DHT22;11200;51.488;6.668;2023-05-07T01:54:46;15.30;99.90
22071;DHT22;11200;51.488;6.668;2023-05-07T01:57:12;15.30;99.90
22071;DHT22;11200;51.488;6.668;2023-05-07T01:59:37;15.30;99.90
22071;DHT22;11200;51.488;6.668;2023-05-07T02:02:03;15.30;99.90
22071;DHT22;11200;51.488;6.668;2023-05-07T02:04:29;15.20;99.90
22071;DHT22;11200;51.488;6.668;2023-05-07T02:06:54;15.20;99.90
22071;DHT22;11200;51.488;6.668;2023-05-07T02:09:21;15.20;99.90
22071;DHT22;11200;51.488;6.668;2023-05-07T02:11:47;14.80;99.90
22071;DHT22;11200;51.488;6.668;2023-05-07T02:14:12;15.20;99.90
22071;DHT22;11200;51.488;6.668;2023-05-07T02:16:38;15.10;99.90
22071;DHT22;11200;51.488;6.668;2023-05-07T02:19:04;15.20;99.90
22071;DHT22;11200;51.488;6.668;2023-05-07T02:21:30;15.20;99.90
22071;DHT22;11200;51.488;6.668;2023-05-07T02:23:56;15.20;99.90
22071;DHT22;11200;51.488;6.668;2023-05-07T02:26:21;15.10;99.90
22071;DHT22;11200;51.488;6.668;2023-05-07T02:28:47;15.10;99.90
22071;DHT22;11200;51.488;6.668;2023-05-07T02:31:12;15.10;99.90
22071;DHT22;11200;51.488;6.668;2023-05-07T02:33:38;15.10;99.90
22071;DHT22;11200;51.488;6.668;2023-05-07T02:36:08;15.10;99.90
22071;DHT22;11200;51.488;6.668;2023-05-07T02:38:34;15.10;99.90
22071;DHT22;11200;51.488;6.668;2023-05-07T02:41:00;15.00;99.90
22071;DHT22;11200;51.488;6.668;2023-05-07T02:43:25;15.00;99.90
22071;DHT22;11200;51.488;6.668;2023-05-07T02:46:05;15.00;99.90
22071;DHT22;11200;51.488;6.668;2023-05-07T02:48:31;15.00;99.90
22071;DHT22;11200;51.488;6.668;2023-05-07T02:50:58;15.00;99.90
22071;DHT22;11200;51.488;6.668;2023-05-07T02:53:23;15.00;99.90
22071;DHT22;11200;51.488;6.668;2023-05-07T02:55:58;15.00;99.90
22071;DHT22;11200;51.488;6.668;2023-05-07T02:58:24;15.00;99.90
22071;DHT22;11200;51.488;6.668;2023-05-07T03:00:49;14.90;99.90
22071;DHT22;11200;51.488;6.668;2023-05-07T03:03:15;14.90;99.90
22071;DHT22;11200;51.488;6.668;2023-05-07T03:05:41;14.90;99.90
22071;DHT22;11200;51.488;6.668;2023-05-07T03:08:07;14.90;99.90
22071;DHT22;11200;51.488;6.668;2023-05-07T03:10:33;14.90;99.90
22071;DHT22;11200;51.488;6.668;2023-05-07T03:12:58;14.90;99.90
22071;DHT22;11200;51.488;6.668;2023-05-07T03:15:24;14.90;99.90
22071;DHT22;11200;51.488;6.668;2023-05-07T03:17:50;14.90;99.90
22071;DHT22;11200;51.488;6.668;2023-05-07T03:20:15;14.80;99.90
22071;DHT22;11200;51.488;6.668;2023-05-07T03:22:41;14.80;99.90
22071;DHT22;11200;51.488;6.668;2023-05-07T03:25:08;14.80;99.90
22071;DHT22;11200;51.488;6.668;2023-05-07T03:27:34;14.80;99.90
22071;DHT22;11200;51.488;6.668;2023-05-07T03:30:00;14.80;99.90
22071;DHT22;11200;51.488;6.668;2023-05-07T03:32:26;14.80;99.90
22071;DHT22;11200;51.488;6.668;2023-05-07T03:34:51;14.70;99.90
22071;DHT22;11200;51.488;6.668;2023-05-07T03:37:17;14.70;99.90
22071;DHT22;11200;51.488;6.668;2023-05-07T03:39:43;14.70;99.90
22071;DHT22;11200;51.488;6.668;2023-05-07T03:42:08;14.60;99.90
22071;DHT22;11200;51.488;6.668;2023-05-07T03:44:34;14.70;99.90
22071;DHT22;11200;51.488;6.668;2023-05-07T03:47:02;14.70;99.90
22071;DHT22;11200;51.488;6.668;2023-05-07T03:49:27;14.70;99.90
22071;DHT22;11200;51.488;6.668;2023-05-07T03:51:53;14.70;99.90
22071;DHT22;11200;51.488;6.668;2023-05-07T03:54:19;14.70;99.90
22071;DHT22;11200;51.488;6.668;2023-05-07T03:56:45;14.60;99.90
22071;DHT22;11200;51.488;6.668;2023-05-07T03:59:11;14.60;99.90
22071;DHT22;11200;51.488;6.668;2023-05-07T04:01:37;14.60;99.90
22071;DHT22;11200;51.488;6.668;2023-05-07T04:04:02;14.60;99.90
22071;DHT22;11200;51.488;6.668;2023-05-07T04:06:28;14.60;99.90
22071;DHT22;11200;51.488;6.668;2023-05-07T04:08:54;14.60;99.90
22071;DHT22;11200;51.488;6.668;2023-05-07T04:11:19;14.60;99.90
22071;DHT22;11200;51.488;6.668;2023-05-07T04:13:45;14.50;99.90
22071;DHT22;11200;51.488;6.668;2023-05-07T04:16:11;14.60;99.90
22071;DHT22;11200;51.488;6.668;2023-05-07T04:18:36;14.60;99.90
22071;DHT22;11200;51.488;6.668;2023-05-07T04:21:02;14.60;99.90
22071;DHT22;11200;51.488;6.668;2023-05-07T04:23:28;14.60;99.90
22071;DHT22;11200;51.488;6.668;2023-05-07T04:25:53;14.50;99.90
22071;DHT22;11200;51.488;6.668;2023-05-07T04:28:19;14.50;99.90
22071;DHT22;11200;51.488;6.668;2023-05-07T04:30:46;14.50;99.90
22071;DHT22;11200;51.488;6.668;2023-05-07T04:33:11;14.50;99.90
22071;DHT22;11200;51.488;6.668;2023-05-07T04:35:37;14.50;99.90
22071;DHT22;11200;51.488;6.668;2023-05-07T04:38:03;14.50;99.90
22071;DHT22;11200;51.488;6.668;2023-05-07T04:40:29;14.50;99.90
22071;DHT22;11200;51.488;6.668;2023-05-07T04:42:54;14.50;99.90
22071;DHT22;11200;51.488;6.668;2023-05-07T04:45:20;14.50;99.90
22071;DHT22;11200;51.488;6.668;2023-05-07T04:47:46;14.50;99.90
22071;DHT22;11200;51.488;6.668;2023-05-07T04:50:11;14.40;99.90
22071;DHT22;11200;51.488;6.668;2023-05-07T04:52:37;14.50;99.90
22071;DHT22;11200;51.488;6.668;2023-05-07T04:55:03;14.40;99.90
22071;DHT22;11200;51.488;6.668;2023-05-07T04:57:28;14.40;99.90
22071;DHT22;11200;51.488;6.668;2023-05-07T04:59:54;14.40;99.90
22071;DHT22;11200;51.488;6.668;2023-05-07T05:02:20;14.40;99.90
22071;DHT22;11200;51.488;6.668;2023-05-07T05:04:46;14.40;99.90
22071;DHT22;11200;51.488;6.668;2023-05-07T05:07:11;14.40;99.90
22071;DHT22;11200;51.488;6.668;2023-05-07T05:09:37;14.40;99.90
22071;DHT22;11200;51.488;6.668;2023-05-07T05:12:03;14.40;99.90
22071;DHT22;11200;51.488;6.668;2023-05-07T05:14:29;14.40;99.90
22071;DHT22;11200;51.488;6.668;2023-05-07T05:16:54;14.40;99.90
22071;DHT22;11200;51.488;6.668;2023-05-07T05:19:20;14.40;99.90
22071;DHT22;11200;51.488;6.668;2023-05-07T05:21:46;14.40;99.90
22071;DHT22;11200;51.488;6.668;2023-05-07T05:24:11;14.30;99.90
22071;DHT22;11200;51.488;6.668;2023-05-07T05:26:37;14.30;99.90
22071;DHT22;11200;51.488;6.668;2023-05-07T05:29:03;14.30;99.90
22071;DHT22;11200;51.488;6.668;2023-05-07T05:31:28;14.40;99.90
22071;DHT22;11200;51.488;6.668;2023-05-07T05:33:54;14.30;99.90
22071;DHT22;11200;51.488;6.668;2023-05-07T05:36:20;14.30;99.90
22071;DHT22;11200;51.488;6.668;2023-05-07T05:38:45;14.40;99.90
22071;DHT22;11200;51.488;6.668;2023-05-07T05:41:11;14.40;99.90
22071;DHT22;11200;51.488;6.668;2023-05-07T05:43:37;14.40;99.90
22071;DHT22;11200;51.488;6.668;2023-05-07T05:46:02;14.40;99.90
22071;DHT22;11200;51.488;6.668;2023-05-07T05:48:30;14.40;99.90
22071;DHT22;11200;51.488;6.668;2023-05-07T05:50:55;14.40;99.90
22071;DHT22;11200;51.488;6.668;2023-05-07T05:53:21;14.40;99.90
22071;DHT22;11200;51.488;6.668;2023-05-07T05:55:47;14.50;99.90
22071;DHT22;11200;51.488;6.668;2023-05-07T05:58:12;14.50;99.90
22071;DHT22;11200;51.488;6.668;2023-05-07T06:00:38;14.50;99.90
22071;DHT22;11200;51.488;6.668;2023-05-07T06:03:04;14.60;99.90
22071;DHT22;11200;51.488;6.668;2023-05-07T06:05:29;14.60;99.90
22071;DHT22;11200;51.488;6.668;2023-05-07T06:07:55;14.70;99.90
22071;DHT22;11200;51.488;6.668;2023-05-07T06:10:21;14.70;99.90
22071;DHT22;11200;51.488;6.668;2023-05-07T06:12:46;14.80;99.90
22071;DHT22;11200;51.488;6.668;2023-05-07T06:15:12;14.80;99.90
22071;DHT22;11200;51.488;6.668;2023-05-07T06:17:38;14.90;99.90
22071;DHT22;11200;51.488;6.668;2023-05-07T06:20:04;14.90;99.90
22071;DHT22;11200;51.488;6.668;2023-05-07T06:22:29;15.00;99.90
22071;DHT22;11200;51.488;6.668;2023-05-07T06:24:55;15.00;99.90
22071;DHT22;11200;51.488;6.668;2023-05-07T06:27:21;15.10;99.90
22071;DHT22;11200;51.488;6.668;2023-05-07T06:29:48;15.20;99.90
22071;DHT22;11200;51.488;6.668;2023-05-07T06:32:14;15.20;99.90
22071;DHT22;11200;51.488;6.668;2023-05-07T06:34:42;15.30;99.90
22071;DHT22;11200;51.488;6.668;2023-05-07T06:37:07;15.40;99.90
22071;DHT22;11200;51.488;6.668;2023-05-07T06:39:33;15.40;99.90
22071;DHT22;11200;51.488;6.668;2023-05-07T06:42:00;15.50;99.90
22071;DHT22;11200;51.488;6.668;2023-05-07T06:44:26;15.50;99.90
22071;DHT22;11200;51.488;6.668;2023-05-07T06:46:52;15.60;99.90
22071;DHT22;11200;51.488;6.668;2023-05-07T06:49:18;15.60;99.90
22071;DHT22;11200;51.488;6.668;2023-05-07T06:51:43;15.70;99.90
22071;DHT22;11200;51.488;6.668;2023-05-07T06:54:09;15.70;99.90
22071;DHT22;11200;51.488;6.668;2023-05-07T06:56:34;15.80;99.90
22071;DHT22;11200;51.488;6.668;2023-05-07T06:59:02;15.90;99.90
22071;DHT22;11200;51.488;6.668;2023-05-07T07:01:28;15.90;99.90
22071;DHT22;11200;51.488;6.668;2023-05-07T07:03:54;16.00;99.90
22071;DHT22;11200;51.488;6.668;2023-05-07T07:06:25;16.00;99.90
22071;DHT22;11200;51.488;6.668;2023-05-07T07:09:07;15.90;99.90
22071;DHT22;11200;51.488;6.668;2023-05-07T07:11:32;16.20;99.90
22071;DHT22;11200;51.488;6.668;2023-05-07T07:14:05;16.20;99.90
22071;DHT22;11200;51.488;6.668;2023-05-07T07:16:36;16.30;99.90
22071;DHT22;11200;51.488;6.668;2023-05-07T07:19:02;16.30;99.90
22071;DHT22;11200;51.488;6.668;2023-05-07T07:21:30;16.40;99.90
22071;DHT22;11200;51.488;6.668;2023-05-07T07:23:56;16.40;99.90
22071;DHT22;11200;51.488;6.668;2023-05-07T07:26:21;16.40;99.90
22071;DHT22;11200;51.488;6.668;2023-05-07T07:28:48;16.50;99.90
22071;DHT22;11200;51.488;6.668;2023-05-07T07:31:13;16.50;99.90
22071;DHT22;11200;51.488;6.668;2023-05-07T07:33:39;16.60;99.90
22071;DHT22;11200;51.488;6.668;2023-05-07T07:36:05;16.70;99.90
22071;DHT22;11200;51.488;6.668;2023-05-07T07:38:32;16.70;99.90
22071;DHT22;11200;51.488;6.668;2023-05-07T07:40:58;16.80;99.90
22071;DHT22;11200;51.488;6.668;2023-05-07T07:43:24;16.90;99.90
22071;DHT22;11200;51.488;6.668;2023-05-07T07:45:50;17.00;99.90
22071;DHT22;11200;51.488;6.668;2023-05-07T07:48:16;17.00;99.90
22071;DHT22;11200;51.488;6.668;2023-05-07T07:50:45;17.10;99.90
22071;DHT22;11200;51.488;6.668;2023-05-07T07:53:13;17.00;99.90
22071;DHT22;11200;51.488;6.668;2023-05-07T07:55:39;17.20;99.90
22071;DHT22;11200;51.488;6.668;2023-05-07T07:58:05;17.30;99.90
22071;DHT22;11200;51.488;6.668;2023-05-07T08:00:31;17.40;99.90
22071;DHT22;11200;51.488;6.668;2023-05-07T08:02:56;17.60;99.90
22071;DHT22;11200;51.488;6.668;2023-05-07T08:05:22;17.70;99.90
22071;DHT22;11200;51.488;6.668;2023-05-07T08:07:48;17.80;99.90
22071;DHT22;11200;51.488;6.668;2023-05-07T08:10:18;17.90;99.90
22071;DHT22;11200;51.488;6.668;2023-05-07T08:12:48;18.00;99.90
22071;DHT22;11200;51.488;6.668;2023-05-07T08:15:14;18.10;99.90
22071;DHT22;11200;51.488;6.668;2023-05-07T08:17:40;18.20;99.90
22071;DHT22;11200;51.488;6.668;2023-05-07T08:20:06;18.20;99.90
22071;DHT22;11200;51.488;6.668;2023-05-07T08:22:34;18.30;99.90
22071;DHT22;11200;51.488;6.668;2023-05-07T08:24:59;18.20;99.90
22071;DHT22;11200;51.488;6.668;2023-05-07T08:27:25;18.40;99.90
22071;DHT22;11200;51.488;6.668;2023-05-07T08:29:51;18.40;99.90
22071;DHT22;11200;51.488;6.668;2023-05-07T08:32:16;18.50;99.90
22071;DHT22;11200;51.488;6.668;2023-05-07T08:34:42;18.50;99.90
22071;DHT22;11200;51.488;6.668;2023-05-07T08:37:08;18.50;99.90
22071;DHT22;11200;51.488;6.668;2023-05-07T08:39:33;18.60;99.90
22071;DHT22;11200;51.488;6.668;2023-05-07T08:42:04;18.60;99.90
22071;DHT22;11200;51.488;6.668;2023-05-07T08:44:34;18.70;99.90
22071;DHT22;11200;51.488;6.668;2023-05-07T08:47:06;18.80;99.90
22071;DHT22;11200;51.488;6.668;2023-05-07T08:49:33;18.90;99.90
22071;DHT22;11200;51.488;6.668;2023-05-07T08:51:59;18.90;99.90
22071;DHT22;11200;51.488;6.668;2023-05-07T08:54:26;19.10;99.90
22071;DHT22;11200;51.488;6.668;2023-05-07T08:56:53;19.20;99.90
22071;DHT22;11200;51.488;6.668;2023-05-07T08:59:18;19.30;99.90
22071;DHT22;11200;51.488;6.668;2023-05-07T09:01:44;19.40;99.90
22071;DHT22;11200;51.488;6.668;2023-05-07T09:04:10;19.50;99.90
22071;DHT22;11200;51.488;6.668;2023-05-07T09:06:35;19.60;99.90
22071;DHT22;11200;51.488;6.668;2023-05-07T09:09:03;19.70;99.90
22071;DHT22;11200;51.488;6.668;2023-05-07T09:11:30;19.80;99.90
22071;DHT22;11200;51.488;6.668;2023-05-07T09:13:57;19.90;99.90
22071;DHT22;11200;51.488;6.668;2023-05-07T09:16:25;20.00;99.90
22071;DHT22;11200;51.488;6.668;2023-05-07T09:18:52;20.00;99.90
22071;DHT22;11200;51.488;6.668;2023-05-07T09:21:19;20.10;99.90
22071;DHT22;11200;51.488;6.668;2023-05-07T09:23:47;20.30;99.90
22071;DHT22;11200;51.488;6.668;2023-05-07T09:26:14;20.40;99.90
22071;DHT22;11200;51.488;6.668;2023-05-07T09:28:40;20.60;99.90
22071;DHT22;11200;51.488;6.668;2023-05-07T09:31:10;20.80;99.90
22071;DHT22;11200;51.488;6.668;2023-05-07T09:33:36;20.90;99.90
22071;DHT22;11200;51.488;6.668;2023-05-07T09:36:08;21.10;99.90
22071;DHT22;11200;51.488;6.668;2023-05-07T09:38:35;21.30;99.90
22071;DHT22;11200;51.488;6.668;2023-05-07T09:41:05;21.50;99.90
22071;DHT22;11200;51.488;6.668;2023-05-07T09:43:35;21.70;99.90
22071;DHT22;11200;51.488;6.668;2023-05-07T09:46:11;21.90;99.90
22071;DHT22;11200;51.488;6.668;2023-05-07T09:48:41;22.20;99.90
22071;DHT22;11200;51.488;6.668;2023-05-07T09:51:21;22.40;99.90
22071;DHT22;11200;51.488;6.668;2023-05-07T09:53:53;22.60;99.90
22071;DHT22;11200;51.488;6.668;2023-05-07T09:56:19;22.80;99.90
22071;DHT22;11200;51.488;6.668;2023-05-07T09:58:46;22.90;99.90
22071;DHT22;11200;51.488;6.668;2023-05-07T10:01:13;23.10;99.90
22071;DHT22;11200;51.488;6.668;2023-05-07T10:03:41;23.10;99.90
22071;DHT22;11200;51.488;6.668;2023-05-07T10:06:09;23.30;99.90
22071;DHT22;11200;51.488;6.668;2023-05-07T10:08:35;23.40;99.90
22071;DHT22;11200;51.488;6.668;2023-05-07T10:11:02;23.50;99.90
22071;DHT22;11200;51.488;6.668;2023-05-07T10:13:28;23.60;99.90
22071;DHT22;11200;51.488;6.668;2023-05-07T10:15:55;23.70;99.90
22071;DHT22;11200;51.488;6.668;2023-05-07T10:18:22;23.90;99.90
22071;DHT22;11200;51.488;6.668;2023-05-07T10:20:50;24.00;99.90
22071;DHT22;11200;51.488;6.668;2023-05-07T10:23:21;24.20;99.90
22071;DHT22;11200;51.488;6.668;2023-05-07T10:25:48;24.30;99.90
22071;DHT22;11200;51.488;6.668;2023-05-07T10:28:15;24.40;99.90
22071;DHT22;11200;51.488;6.668;2023-05-07T10:31:04;24.60;99.90
22071;DHT22;11200;51.488;6.668;2023-05-07T10:33:34;24.70;99.90
22071;DHT22;11200;51.488;6.668;2023-05-07T10:36:01;24.80;99.90
22071;DHT22;11200;51.488;6.668;2023-05-07T10:38:29;24.80;99.90
22071;DHT22;11200;51.488;6.668;2023-05-07T10:40:55;24.90;99.90
22071;DHT22;11200;51.488;6.668;2023-05-07T10:43:21;25.00;99.90
22071;DHT22;11200;51.488;6.668;2023-05-07T10:46:09;25.00;99.90
22071;DHT22;11200;51.488;6.668;2023-05-07T10:51:32;25.10;99.90
22071;DHT22;11200;51.488;6.668;2023-05-07T10:56:45;25.10;99.90
22071;DHT22;11200;51.488;6.668;2023-05-07T11:02:02;25.10;99.90
22071;DHT22;11200;51.488;6.668;2023-05-07T11:04:29;25.20;99.90
22071;DHT22;11200;51.488;6.668;2023-05-07T11:12:17;25.30;99.90
22071;DHT22;11200;51.488;6.668;2023-05-07T11:17:09;25.30;99.90
22071;DHT22;11200;51.488;6.668;2023-05-07T11:19:51;25.30;99.90
22071;DHT22;11200;51.488;6.668;2023-05-07T11:25:03;25.30;99.90
22071;DHT22;11200;51.488;6.668;2023-05-07T11:27:29;25.20;99.90
22071;DHT22;11200;51.488;6.668;2023-05-07T11:29:55;25.20;99.90
22071;DHT22;11200;51.488;6.668;2023-05-07T11:32:25;25.20;99.90
22071;DHT22;11200;51.488;6.668;2023-05-07T11:34:59;25.20;99.90
22071;DHT22;11200;51.488;6.668;2023-05-07T11:37:27;25.30;99.90
22071;DHT22;11200;51.488;6.668;2023-05-07T11:40:04;25.30;99.90
22071;DHT22;11200;51.488;6.668;2023-05-07T11:42:33;25.30;99.90
22071;DHT22;11200;51.488;6.668;2023-05-07T11:45:00;25.30;99.90
22071;DHT22;11200;51.488;6.668;2023-05-07T11:47:26;25.40;99.90
22071;DHT22;11200;51.488;6.668;2023-05-07T11:49:52;25.30;99.90
22071;DHT22;11200;51.488;6.668;2023-05-07T11:52:21;25.40;99.90
22071;DHT22;11200;51.488;6.668;2023-05-07T11:57:15;25.50;99.90
22071;DHT22;11200;51.488;6.668;2023-05-07T11:59:42;25.50;99.90
22071;DHT22;11200;51.488;6.668;2023-05-07T12:02:14;25.50;99.90
22071;DHT22;11200;51.488;6.668;2023-05-07T12:04:40;25.60;99.90
22071;DHT22;11200;51.488;6.668;2023-05-07T12:07:15;25.50;99.90
22071;DHT22;11200;51.488;6.668;2023-05-07T12:09:44;25.50;99.90
22071;DHT22;11200;51.488;6.668;2023-05-07T12:12:11;25.60;99.90
22071;DHT22;11200;51.488;6.668;2023-05-07T12:14:41;25.60;99.90
22071;DHT22;11200;51.488;6.668;2023-05-07T12:17:08;25.50;99.90
22071;DHT22;11200;51.488;6.668;2023-05-07T12:19:38;25.50;99.90
22071;DHT22;11200;51.488;6.668;2023-05-07T12:22:04;25.50;99.90
22071;DHT22;11200;51.488;6.668;2023-05-07T12:24:46;25.50;99.90
22071;DHT22;11200;51.488;6.668;2023-05-07T12:27:13;25.40;99.90
22071;DHT22;11200;51.488;6.668;2023-05-07T12:29:39;25.40;99.90
22071;DHT22;11200;51.488;6.668;2023-05-07T12:32:06;25.30;99.90
22071;DHT22;11200;51.488;6.668;2023-05-07T12:34:32;25.20;99.90
22071;DHT22;11200;51.488;6.668;2023-05-07T12:37:02;25.20;99.90
22071;DHT22;11200;51.488;6.668;2023-05-07T12:39:28;25.10;99.90
22071;DHT22;11200;51.488;6.668;2023-05-07T12:41:55;25.10;99.90
22071;DHT22;11200;51.488;6.668;2023-05-07T12:44:29;25.00;99.90
22071;DHT22;11200;51.488;6.668;2023-05-07T12:46:55;25.00;99.90
22071;DHT22;11200;51.488;6.668;2023-05-07T12:49:21;24.90;99.90
22071;DHT22;11200;51.488;6.668;2023-05-07T12:51:47;24.90;99.90
22071;DHT22;11200;51.488;6.668;2023-05-07T12:54:27;24.80;99.90
22071;DHT22;11200;51.488;6.668;2023-05-07T12:57:04;24.80;99.90
22071;DHT22;11200;51.488;6.668;2023-05-07T12:59:41;24.70;99.90
22071;DHT22;11200;51.488;6.668;2023-05-07T13:02:08;24.70;99.90
22071;DHT22;11200;51.488;6.668;2023-05-07T13:04:34;24.60;99.90
22071;DHT22;11200;51.488;6.668;2023-05-07T13:07:00;24.60;99.90
22071;DHT22;11200;51.488;6.668;2023-05-07T13:09:26;24.50;99.90
22071;DHT22;11200;51.488;6.668;2023-05-07T13:11:51;24.50;99.90
22071;DHT22;11200;51.488;6.668;2023-05-07T13:14:17;24.50;99.90
22071;DHT22;11200;51.488;6.668;2023-05-07T13:16:43;24.40;99.90
22071;DHT22;11200;51.488;6.668;2023-05-07T13:19:08;24.40;99.90
22071;DHT22;11200;51.488;6.668;2023-05-07T13:21:35;24.40;99.90
22071;DHT22;11200;51.488;6.668;2023-05-07T13:24:00;24.40;99.90
22071;DHT22;11200;51.488;6.668;2023-05-07T13:26:26;24.40;99.90
22071;DHT22;11200;51.488;6.668;2023-05-07T13:28:57;24.30;99.90
22071;DHT22;11200;51.488;6.668;2023-05-07T13:31:24;24.30;99.90
22071;DHT22;11200;51.488;6.668;2023-05-07T13:33:50;24.30;99.90
22071;DHT22;11200;51.488;6.668;2023-05-07T13:36:16;24.20;99.90
22071;DHT22;11200;51.488;6.668;2023-05-07T13:38:41;24.20;99.90
22071;DHT22;11200;51.488;6.668;2023-05-07T13:41:07;24.10;99.90
22071;DHT22;11200;51.488;6.668;2023-05-07T13:43:33;23.90;99.90
22071;DHT22;11200;51.488;6.668;2023-05-07T13:45:59;24.00;99.90
22071;DHT22;11200;51.488;6.668;2023-05-07T13:48:25;24.00;99.90
22071;DHT22;11200;51.488;6.668;2023-05-07T13:50:54;23.90;99.90
22071;DHT22;11200;51.488;6.668;2023-05-07T13:53:20;23.90;99.90
22071;DHT22;11200;51.488;6.668;2023-05-07T13:55:45;23.80;99.90
22071;DHT22;11200;51.488;6.668;2023-05-07T13:58:11;23.80;99.90
22071;DHT22;11200;51.488;6.668;2023-05-07T14:00:37;23.80;99.90
22071;DHT22;11200;51.488;6.668;2023-05-07T14:03:04;23.70;99.90
22071;DHT22;11200;51.488;6.668;2023-05-07T14:05:30;23.70;99.90
22071;DHT22;11200;51.488;6.668;2023-05-07T14:07:59;23.70;99.90
22071;DHT22;11200;51.488;6.668;2023-05-07T14:10:25;23.60;99.90
22071;DHT22;11200;51.488;6.668;2023-05-07T14:12:51;23.60;99.90
22071;DHT22;11200;51.488;6.668;2023-05-07T14:15:20;23.60;99.90
22071;DHT22;11200;51.488;6.668;2023-05-07T14:17:46;23.50;99.90
22071;DHT22;11200;51.488;6.668;2023-05-07T14:20:13;23.50;99.90
22071;DHT22;11200;51.488;6.668;2023-05-07T14:22:39;23.50;99.90
22071;DHT22;11200;51.488;6.668;2023-05-07T14:25:05;23.40;99.90
22071;DHT22;11200;51.488;6.668;2023-05-07T14:27:31;23.40;99.90
22071;DHT22;11200;51.488;6.668;2023-05-07T14:29:56;23.30;99.90
22071;DHT22;11200;51.488;6.668;2023-05-07T14:32:23;23.20;99.90
22071;DHT22;11200;51.488;6.668;2023-05-07T14:34:50;23.20;99.90
22071;DHT22;11200;51.488;6.668;2023-05-07T14:37:16;23.10;99.90
22071;DHT22;11200;51.488;6.668;2023-05-07T14:39:41;23.10;99.90
22071;DHT22;11200;51.488;6.668;2023-05-07T14:42:07;23.00;99.90
22071;DHT22;11200;51.488;6.668;2023-05-07T14:44:34;22.90;99.90
22071;DHT22;11200;51.488;6.668;2023-05-07T14:47:00;22.90;99.90
22071;DHT22;11200;51.488;6.668;2023-05-07T14:49:27;22.80;99.90
22071;DHT22;11200;51.488;6.668;2023-05-07T14:51:52;22.80;99.90
22071;DHT22;11200;51.488;6.668;2023-05-07T14:54:19;22.70;99.90
22071;DHT22;11200;51.488;6.668;2023-05-07T14:56:44;22.70;99.90
22071;DHT22;11200;51.488;6.668;2023-05-07T14:59:10;22.60;99.90
22071;DHT22;11200;51.488;6.668;2023-05-07T15:01:38;22.60;99.90
22071;DHT22;11200;51.488;6.668;2023-05-07T15:04:05;22.50;99.90
22071;DHT22;11200;51.488;6.668;2023-05-07T15:06:31;22.40;99.90
22071;DHT22;11200;51.488;6.668;2023-05-07T15:08:57;22.30;99.90
22071;DHT22;11200;51.488;6.668;2023-05-07T15:11:23;22.30;99.90
22071;DHT22;11200;51.488;6.668;2023-05-07T15:13:49;22.20;99.90
22071;DHT22;11200;51.488;6.668;2023-05-07T15:16:15;22.10;99.90
22071;DHT22;11200;51.488;6.668;2023-05-07T15:18:42;22.10;99.90
22071;DHT22;11200;51.488;6.668;2023-05-07T15:21:08;22.00;99.90
22071;DHT22;11200;51.488;6.668;2023-05-07T15:23:34;21.90;99.90
22071;DHT22;11200;51.488;6.668;2023-05-07T15:26:00;21.90;99.90
22071;DHT22;11200;51.488;6.668;2023-05-07T15:28:30;21.90;99.90
22071;DHT22;11200;51.488;6.668;2023-05-07T15:31:01;21.50;99.90
22071;DHT22;11200;51.488;6.668;2023-05-07T15:33:32;21.80;99.90
22071;DHT22;11200;51.488;6.668;2023-05-07T15:35:58;21.90;99.90
22071;DHT22;11200;51.488;6.668;2023-05-07T15:38:25;21.50;99.90
22071;DHT22;11200;51.488;6.668;2023-05-07T15:40:52;20.70;99.90
22071;DHT22;11200;51.488;6.668;2023-05-07T15:43:17;21.70;99.90
22071;DHT22;11200;51.488;6.668;2023-05-07T15:45:44;21.70;99.90
22071;DHT22;11200;51.488;6.668;2023-05-07T15:48:10;21.60;99.90
22071;DHT22;11200;51.488;6.668;2023-05-07T15:50:36;21.50;99.90
22071;DHT22;11200;51.488;6.668;2023-05-07T15:53:02;21.60;99.90